sensor_id;sensor_type;location;lat;lon;timestamp;pressure;altitude;pressure_sealevel;temperature;humidity
58686;BME280;44465;53.206;-6.106;2024-03-22T00:00:05;101778.25;;;21.49;50.40
58686;BME280;44465;53.206;-6.106;2024-03-22T00:02:38;101766.78;;;21.45;50.42
58686;BME280;44465;53.206;-6.106;2024-03-22T00:05:04;101781.78;;;21.49;50.52
58686;BME280;44465;53.206;-6.106;2024-03-22T00:07:30;101783.72;;;21.46;50.28
58686;BME280;44465;53.206;-6.106;2024-03-22T00:09:56;101785.56;;;21.45;50.27
58686;BME280;44465;53.206;-6.106;2024-03-22T00:12:22;101776.44;;;21.49;50.14
58686;BME280;44465;53.206;-6.106;2024-03-22T00:14:48;101768.47;;;21.48;50.28
58686;BME280;44465;53.206;-6.106;2024-03-22T00:17:13;101778.25;;;21.49;49.98
58686;BME280;44465;53.206;-6.106;2024-03-22T00:19:39;101765.91;;;21.45;50.13
58686;BME280;44465;53.206;-6.106;2024-03-22T00:22:04;101761.34;;;21.47;50.06
58686;BME280;44465;53.206;-6.106;2024-03-22T00:24:30;101768.47;;;21.48;50.24
58686;BME280;44465;53.206;-6.106;2024-03-22T00:26:56;101764.03;;;21.47;50.13
58686;BME280;44465;53.206;-6.106;2024-03-22T00:29:21;101754.63;;;21.36;50.08
58686;BME280;44465;53.206;-6.106;2024-03-22T00:31:47;101766.97;;;21.41;50.08
58686;BME280;44465;53.206;-6.106;2024-03-22T00:34:12;101765.16;;;21.41;50.02
58686;BME280;44465;53.206;-6.106;2024-03-22T00:36:38;101775.69;;;21.46;50.12
58686;BME280;44465;53.206;-6.106;2024-03-22T00:39:03;101777.56;;;21.44;50.03
58686;BME280;44465;53.206;-6.106;2024-03-22T00:41:29;101761.63;;;21.41;50.02
58686;BME280;44465;53.206;-6.106;2024-03-22T00:43:54;101782.06;;;21.43;49.81
58686;BME280;44465;53.206;-6.106;2024-03-22T00:46:20;101780.22;;;21.44;50.43
58686;BME280;44465;53.206;-6.106;2024-03-22T00:48:46;101790.91;;;21.45;50.09
58686;BME280;44465;53.206;-6.106;2024-03-22T00:51:11;101783.81;;;21.44;50.00
58686;BME280;44465;53.206;-6.106;2024-03-22T00:53:37;101777.69;;;21.41;50.08
58686;BME280;44465;53.206;-6.106;2024-03-22T00:56:02;101775.97;;;21.39;50.00
58686;BME280;44465;53.206;-6.106;2024-03-22T00:58:29;101778.50;;;21.43;49.83
58686;BME280;44465;53.206;-6.106;2024-03-22T01:00:55;101779.44;;;21.42;49.84
58686;BME280;44465;53.206;-6.106;2024-03-22T01:03:21;101772.47;;;21.37;49.86
58686;BME280;44465;53.206;-6.106;2024-03-22T01:05:47;101790.03;;;21.45;49.57
58686;BME280;44465;53.206;-6.106;2024-03-22T01:08:12;101784.72;;;21.43;49.83
58686;BME280;44465;53.206;-6.106;2024-03-22T01:10:38;101776.19;;;21.33;49.63
58686;BME280;44465;53.206;-6.106;2024-03-22T01:13:03;101788.41;;;21.41;49.78
58686;BME280;44465;53.206;-6.106;2024-03-22T01:15:29;101783.06;;;21.41;49.98
58686;BME280;44465;53.206;-6.106;2024-03-22T01:17:55;101783.19;;;21.37;49.93
58686;BME280;44465;53.206;-6.106;2024-03-22T01:20:20;101799.91;;;21.43;50.02
58686;BME280;44465;53.206;-6.106;2024-03-22T01:22:46;101777.81;;;21.37;50.05
58686;BME280;44465;53.206;-6.106;2024-03-22T01:25:11;101799.13;;;21.41;49.75
58686;BME280;44465;53.206;-6.106;2024-03-22T01:27:37;101802.59;;;21.43;50.08
58686;BME280;44465;53.206;-6.106;2024-03-22T01:30:03;101798.13;;;21.43;49.90
58686;BME280;44465;53.206;-6.106;2024-03-22T01:32:28;101789.28;;;21.41;49.99
58686;BME280;44465;53.206;-6.106;2024-03-22T01:34:54;101800.88;;;21.42;50.09
58686;BME280;44465;53.206;-6.106;2024-03-22T01:37:19;101778.88;;;21.33;49.89
58686;BME280;44465;53.206;-6.106;2024-03-22T01:39:45;101785.84;;;21.37;49.84
58686;BME280;44465;53.206;-6.106;2024-03-22T01:42:10;101790.22;;;21.40;49.86
58686;BME280;44465;53.206;-6.106;2024-03-22T01:44:36;101785.00;;;21.37;49.70
58686;BME280;44465;53.206;-6.106;2024-03-22T01:47:02;101783.06;;;21.41;49.77
58686;BME280;44465;53.206;-6.106;2024-03-22T01:49:28;101788.41;;;21.41;49.76
58686;BME280;44465;53.206;-6.106;2024-03-22T01:51:54;101770.84;;;21.33;49.68
58686;BME280;44465;53.206;-6.106;2024-03-22T01:54:20;101778.75;;;21.36;49.45
58686;BME280;44465;53.206;-6.106;2024-03-22T01:56:46;101781.44;;;21.36;49.59
58686;BME280;44465;53.206;-6.106;2024-03-22T01:59:12;101780.56;;;21.36;49.53
58686;BME280;44465;53.206;-6.106;2024-03-22T02:01:38;101778.81;;;21.35;49.52
58686;BME280;44465;53.206;-6.106;2024-03-22T02:04:04;101777.13;;;21.32;49.56
58686;BME280;44465;53.206;-6.106;2024-03-22T02:06:30;101782.47;;;21.32;49.36
58686;BME280;44465;53.206;-6.106;2024-03-22T02:08:57;101781.44;;;21.36;49.33
58686;BME280;44465;53.206;-6.106;2024-03-22T02:11:23;101770.16;;;21.28;49.39
58686;BME280;44465;53.206;-6.106;2024-03-22T02:13:49;101775.34;;;21.33;49.42
58686;BME280;44465;53.206;-6.106;2024-03-22T02:16:15;101770.78;;;21.35;49.29
58686;BME280;44465;53.206;-6.106;2024-03-22T02:18:40;101760.25;;;21.30;49.41
58686;BME280;44465;53.206;-6.106;2024-03-22T02:21:06;101767.28;;;21.33;49.26
58686;BME280;44465;53.206;-6.106;2024-03-22T02:23:36;101777.94;;;21.34;49.43
58686;BME280;44465;53.206;-6.106;2024-03-22T02:26:02;101772.59;;;21.34;49.39
58686;BME280;44465;53.206;-6.106;2024-03-22T02:28:28;101774.53;;;21.31;49.32
58686;BME280;44465;53.206;-6.106;2024-03-22T02:30:54;101774.44;;;21.32;49.28
58686;BME280;44465;53.206;-6.106;2024-03-22T02:33:19;101775.34;;;21.33;49.33
58686;BME280;44465;53.206;-6.106;2024-03-22T02:35:48;101764.72;;;21.30;49.26
58686;BME280;44465;53.206;-6.106;2024-03-22T02:38:15;101762.00;;;21.31;49.24
58686;BME280;44465;53.206;-6.106;2024-03-22T02:40:43;101753.28;;;21.26;49.12
58686;BME280;44465;53.206;-6.106;2024-03-22T02:43:08;101764.94;;;21.25;49.29
58686;BME280;44465;53.206;-6.106;2024-03-22T02:45:34;101762.25;;;21.25;49.22
58686;BME280;44465;53.206;-6.106;2024-03-22T02:47:59;101779.13;;;21.27;49.10
58686;BME280;44465;53.206;-6.106;2024-03-22T02:50:25;101770.25;;;21.27;49.28
58686;BME280;44465;53.206;-6.106;2024-03-22T02:52:50;101772.84;;;21.28;49.09
58686;BME280;44465;53.206;-6.106;2024-03-22T02:55:16;101767.50;;;21.28;49.00
58686;BME280;44465;53.206;-6.106;2024-03-22T02:57:42;101758.75;;;21.23;48.95
58686;BME280;44465;53.206;-6.106;2024-03-22T03:00:08;101756.03;;;21.25;48.85
58686;BME280;44465;53.206;-6.106;2024-03-22T03:02:35;101762.13;;;21.28;49.12
58686;BME280;44465;53.206;-6.106;2024-03-22T03:05:01;101758.63;;;21.26;48.85
58686;BME280;44465;53.206;-6.106;2024-03-22T03:07:27;101759.53;;;21.27;49.04
58686;BME280;44465;53.206;-6.106;2024-03-22T03:09:55;101764.94;;;21.25;48.86
58686;BME280;44465;53.206;-6.106;2024-03-22T03:12:21;101759.66;;;21.23;48.83
58686;BME280;44465;53.206;-6.106;2024-03-22T03:14:46;101754.59;;;21.16;48.83
58686;BME280;44465;53.206;-6.106;2024-03-22T03:17:12;101764.19;;;21.21;49.02
58686;BME280;44465;53.206;-6.106;2024-03-22T03:19:37;101761.56;;;21.20;49.03
58686;BME280;44465;53.206;-6.106;2024-03-22T03:22:03;101763.31;;;21.21;49.07
58686;BME280;44465;53.206;-6.106;2024-03-22T03:24:29;101768.69;;;21.21;49.09
58686;BME280;44465;53.206;-6.106;2024-03-22T03:26:54;101772.09;;;21.25;48.93
58686;BME280;44465;53.206;-6.106;2024-03-22T03:29:20;101762.34;;;21.22;48.99
58686;BME280;44465;53.206;-6.106;2024-03-22T03:31:46;101772.97;;;21.25;48.77
58686;BME280;44465;53.206;-6.106;2024-03-22T03:34:11;101761.69;;;21.17;49.06
58686;BME280;44465;53.206;-6.106;2024-03-22T03:36:37;101766.03;;;21.19;48.92
58686;BME280;44465;53.206;-6.106;2024-03-22T03:39:03;101765.84;;;21.24;48.78
58686;BME280;44465;53.206;-6.106;2024-03-22T03:41:29;101768.50;;;21.26;48.92
58686;BME280;44465;53.206;-6.106;2024-03-22T03:43:54;101766.00;;;21.21;48.97
58686;BME280;44465;53.206;-6.106;2024-03-22T03:46:20;101775.00;;;21.18;48.82
58686;BME280;44465;53.206;-6.106;2024-03-22T03:48:46;101768.72;;;21.19;48.92
58686;BME280;44465;53.206;-6.106;2024-03-22T03:51:11;101766.13;;;21.18;48.78
58686;BME280;44465;53.206;-6.106;2024-03-22T03:53:37;101765.13;;;21.20;48.67
58686;BME280;44465;53.206;-6.106;2024-03-22T03:56:02;101767.88;;;21.19;48.77
58686;BME280;44465;53.206;-6.106;2024-03-22T03:58:28;101776.72;;;21.21;48.71
58686;BME280;44465;53.206;-6.106;2024-03-22T04:00:53;101767.88;;;21.19;48.79
58686;BME280;44465;53.206;-6.106;2024-03-22T04:03:19;101783.94;;;21.19;48.72
58686;BME280;44465;53.206;-6.106;2024-03-22T04:05:44;101773.34;;;21.16;48.73
58686;BME280;44465;53.206;-6.106;2024-03-22T04:08:10;101789.16;;;21.22;48.75
58686;BME280;44465;53.206;-6.106;2024-03-22T04:10:35;101787.63;;;21.16;48.59
58686;BME280;44465;53.206;-6.106;2024-03-22T04:13:01;101793.84;;;21.17;48.44
58686;BME280;44465;53.206;-6.106;2024-03-22T04:15:27;101801.75;;;21.20;48.64
58686;BME280;44465;53.206;-6.106;2024-03-22T04:17:52;101796.41;;;21.20;48.58
58686;BME280;44465;53.206;-6.106;2024-03-22T04:20:18;101792.91;;;21.18;48.83
58686;BME280;44465;53.206;-6.106;2024-03-22T04:22:43;101794.66;;;21.19;48.78
58686;BME280;44465;53.206;-6.106;2024-03-22T04:25:09;101798.19;;;21.19;48.60
58686;BME280;44465;53.206;-6.106;2024-03-22T04:27:37;101796.44;;;21.18;48.62
58686;BME280;44465;53.206;-6.106;2024-03-22T04:30:03;101789.34;;;21.17;48.70
58686;BME280;44465;53.206;-6.106;2024-03-22T04:32:29;101789.41;;;21.16;48.66
58686;BME280;44465;53.206;-6.106;2024-03-22T04:34:54;101789.47;;;21.14;48.58
58686;BME280;44465;53.206;-6.106;2024-03-22T04:37:20;101784.06;;;21.16;48.50
58686;BME280;44465;53.206;-6.106;2024-03-22T04:39:46;101791.22;;;21.15;48.47
58686;BME280;44465;53.206;-6.106;2024-03-22T04:42:11;101794.75;;;21.16;48.56
58686;BME280;44465;53.206;-6.106;2024-03-22T04:44:37;101795.66;;;21.16;48.50
58686;BME280;44465;53.206;-6.106;2024-03-22T04:47:03;101800.13;;;21.16;48.50
58686;BME280;44465;53.206;-6.106;2024-03-22T04:49:28;101800.13;;;21.16;48.56
58686;BME280;44465;53.206;-6.106;2024-03-22T04:51:54;101809.91;;;21.17;48.18
58686;BME280;44465;53.206;-6.106;2024-03-22T04:54:19;101799.31;;;21.14;48.59
58686;BME280;44465;53.206;-6.106;2024-03-22T04:56:45;101803.72;;;21.15;48.38
58686;BME280;44465;53.206;-6.106;2024-03-22T04:59:10;101808.97;;;21.18;48.64
58686;BME280;44465;53.206;-6.106;2024-03-22T05:01:36;101809.09;;;21.15;48.38
58686;BME280;44465;53.206;-6.106;2024-03-22T05:04:01;101810.84;;;21.16;48.26
58686;BME280;44465;53.206;-6.106;2024-03-22T05:06:27;101815.34;;;21.15;48.40
58686;BME280;44465;53.206;-6.106;2024-03-22T05:08:52;101819.81;;;21.15;48.64
58686;BME280;44465;53.206;-6.106;2024-03-22T05:11:18;101808.16;;;21.16;48.36
58686;BME280;44465;53.206;-6.106;2024-03-22T05:13:43;101810.03;;;21.14;48.31
58686;BME280;44465;53.206;-6.106;2024-03-22T05:16:09;101810.94;;;21.13;48.55
58686;BME280;44465;53.206;-6.106;2024-03-22T05:18:36;101812.84;;;21.11;48.55
58686;BME280;44465;53.206;-6.106;2024-03-22T05:23:27;101821.81;;;21.10;48.37
58686;BME280;44465;53.206;-6.106;2024-03-22T05:28:18;101809.19;;;21.12;48.40
58686;BME280;44465;53.206;-6.106;2024-03-22T05:30:44;101821.81;;;21.10;48.37
58686;BME280;44465;53.206;-6.106;2024-03-22T05:33:09;101828.09;;;21.08;48.21
58686;BME280;44465;53.206;-6.106;2024-03-22T05:35:34;101833.28;;;21.13;48.38
58686;BME280;44465;53.206;-6.106;2024-03-22T05:38:00;101813.00;;;21.06;48.26
58686;BME280;44465;53.206;-6.106;2024-03-22T05:40:26;101823.66;;;21.07;48.34
58686;BME280;44465;53.206;-6.106;2024-03-22T05:42:51;101827.28;;;21.06;48.53
58686;BME280;44465;53.206;-6.106;2024-03-22T05:45:17;101831.81;;;21.04;48.23
58686;BME280;44465;53.206;-6.106;2024-03-22T05:47:42;101821.00;;;21.07;48.14
58686;BME280;44465;53.206;-6.106;2024-03-22T05:50:08;101824.53;;;21.08;48.28
58686;BME280;44465;53.206;-6.106;2024-03-22T05:52:34;101832.53;;;21.10;48.02
58686;BME280;44465;53.206;-6.106;2024-03-22T05:55:00;101814.13;;;21.00;48.20
58686;BME280;44465;53.206;-6.106;2024-03-22T05:57:26;101832.53;;;21.10;48.21
58686;BME280;44465;53.206;-6.106;2024-03-22T05:59:52;101829.88;;;21.08;48.04
58686;BME280;44465;53.206;-6.106;2024-03-22T06:02:18;101826.47;;;21.04;48.23
58686;BME280;44465;53.206;-6.106;2024-03-22T06:04:44;101824.66;;;21.05;48.33
58686;BME280;44465;53.206;-6.106;2024-03-22T06:07:10;101822.16;;;21.00;48.03
58686;BME280;44465;53.206;-6.106;2024-03-22T06:09:36;101821.03;;;21.06;48.35
58686;BME280;44465;53.206;-6.106;2024-03-22T06:12:15;101828.13;;;21.07;48.06
58686;BME280;44465;53.206;-6.106;2024-03-22T06:14:41;101821.81;;;21.10;48.11
58686;BME280;44465;53.206;-6.106;2024-03-22T06:17:08;101829.03;;;21.07;48.15
58686;BME280;44465;53.206;-6.106;2024-03-22T06:19:34;101829.03;;;21.07;48.12
58686;BME280;44465;53.206;-6.106;2024-03-22T06:22:00;101827.28;;;21.06;48.22
58686;BME280;44465;53.206;-6.106;2024-03-22T06:24:26;101836.25;;;21.05;48.06
58686;BME280;44465;53.206;-6.106;2024-03-22T06:26:51;101827.38;;;21.03;47.94
58686;BME280;44465;53.206;-6.106;2024-03-22T06:29:17;101823.09;;;20.99;47.97
58686;BME280;44465;53.206;-6.106;2024-03-22T06:31:42;101839.97;;;21.01;47.93
58686;BME280;44465;53.206;-6.106;2024-03-22T06:34:08;101838.25;;;21.00;48.02
58686;BME280;44465;53.206;-6.106;2024-03-22T06:36:33;101844.38;;;21.02;47.71
58686;BME280;44465;53.206;-6.106;2024-03-22T06:38:59;101840.78;;;21.03;47.83
58686;BME280;44465;53.206;-6.106;2024-03-22T06:41:25;101843.59;;;21.00;47.94
58686;BME280;44465;53.206;-6.106;2024-03-22T06:43:53;101847.06;;;21.02;47.87
58686;BME280;44465;53.206;-6.106;2024-03-22T06:46:18;101846.28;;;21.00;47.65
58686;BME280;44465;53.206;-6.106;2024-03-22T06:48:45;101848.94;;;21.00;47.80
58686;BME280;44465;53.206;-6.106;2024-03-22T06:51:10;101845.56;;;20.95;47.91
58686;BME280;44465;53.206;-6.106;2024-03-22T06:53:36;101863.13;;;21.02;47.87
58686;BME280;44465;53.206;-6.106;2024-03-22T06:56:01;101862.28;;;21.02;47.85
58686;BME280;44465;53.206;-6.106;2024-03-22T06:58:28;101865.94;;;20.99;47.92
58686;BME280;44465;53.206;-6.106;2024-03-22T07:00:54;101860.63;;;20.98;47.93
58686;BME280;44465;53.206;-6.106;2024-03-22T07:03:19;101878.44;;;20.99;47.67
58686;BME280;44465;53.206;-6.106;2024-03-22T07:05:47;101874.84;;;21.00;47.66
58686;BME280;44465;53.206;-6.106;2024-03-22T07:08:12;101877.59;;;20.98;47.69
58686;BME280;44465;53.206;-6.106;2024-03-22T07:10:41;101883.88;;;20.97;47.85
58686;BME280;44465;53.206;-6.106;2024-03-22T07:13:07;101871.41;;;20.96;47.70
58686;BME280;44465;53.206;-6.106;2024-03-22T07:15:33;101870.38;;;21.00;47.67
58686;BME280;44465;53.206;-6.106;2024-03-22T07:17:58;101870.38;;;21.00;47.66
58686;BME280;44465;53.206;-6.106;2024-03-22T07:20:25;101867.81;;;20.97;47.54
58686;BME280;44465;53.206;-6.106;2024-03-22T07:22:51;101873.97;;;20.99;47.63
58686;BME280;44465;53.206;-6.106;2024-03-22T07:25:16;101881.13;;;20.99;47.70
58686;BME280;44465;53.206;-6.106;2024-03-22T07:27:42;101873.09;;;20.99;47.67
58686;BME280;44465;53.206;-6.106;2024-03-22T07:30:07;101867.09;;;20.92;47.70
58686;BME280;44465;53.206;-6.106;2024-03-22T07:32:33;101883.88;;;20.97;47.57
58686;BME280;44465;53.206;-6.106;2024-03-22T07:34:58;101886.47;;;20.99;47.61
58686;BME280;44465;53.206;-6.106;2024-03-22T07:37:24;101888.22;;;21.00;47.50
58686;BME280;44465;53.206;-6.106;2024-03-22T07:39:50;101885.56;;;21.00;47.68
58686;BME280;44465;53.206;-6.106;2024-03-22T07:42:16;101891.09;;;20.95;47.72
58686;BME280;44465;53.206;-6.106;2024-03-22T07:44:42;101886.56;;;20.97;47.56
58686;BME280;44465;53.206;-6.106;2024-03-22T07:47:07;101880.44;;;20.94;47.37
58686;BME280;44465;53.206;-6.106;2024-03-22T07:49:33;101874.19;;;20.93;47.49
58686;BME280;44465;53.206;-6.106;2024-03-22T07:52:00;101880.38;;;20.95;47.54
58686;BME280;44465;53.206;-6.106;2024-03-22T07:54:25;101875.94;;;20.94;47.37
58686;BME280;44465;53.206;-6.106;2024-03-22T07:56:51;101879.50;;;20.95;47.39
58686;BME280;44465;53.206;-6.106;2024-03-22T07:59:17;101874.09;;;20.96;47.61
58686;BME280;44465;53.206;-6.106;2024-03-22T08:01:42;101875.94;;;20.94;47.67
58686;BME280;44465;53.206;-6.106;2024-03-22T08:04:08;101887.53;;;20.95;47.28
58686;BME280;44465;53.206;-6.106;2024-03-22T08:06:33;101875.75;;;20.99;47.34
58686;BME280;44465;53.206;-6.106;2024-03-22T08:08:59;101874.09;;;20.96;47.28
58686;BME280;44465;53.206;-6.106;2024-03-22T08:11:26;101886.56;;;20.97;47.41
58686;BME280;44465;53.206;-6.106;2024-03-22T08:13:52;101884.03;;;20.92;47.38
58686;BME280;44465;53.206;-6.106;2024-03-22T08:16:17;101873.25;;;20.94;47.44
58686;BME280;44465;53.206;-6.106;2024-03-22T08:18:45;101880.47;;;20.92;47.32
58686;BME280;44465;53.206;-6.106;2024-03-22T08:21:10;101869.72;;;20.94;47.16
58686;BME280;44465;53.206;-6.106;2024-03-22T08:23:36;101870.59;;;20.94;47.19
58686;BME280;44465;53.206;-6.106;2024-03-22T08:26:01;101871.66;;;20.90;47.22
58686;BME280;44465;53.206;-6.106;2024-03-22T08:28:27;101870.59;;;20.94;47.39
58686;BME280;44465;53.206;-6.106;2024-03-22T08:30:53;101857.38;;;20.89;46.97
58686;BME280;44465;53.206;-6.106;2024-03-22T08:33:18;101861.75;;;20.92;47.13
58686;BME280;44465;53.206;-6.106;2024-03-22T08:35:44;101859.13;;;20.90;46.88
58686;BME280;44465;53.206;-6.106;2024-03-22T08:38:09;101865.34;;;20.91;47.06
58686;BME280;44465;53.206;-6.106;2024-03-22T08:40:39;101868.72;;;20.96;47.14
58686;BME280;44465;53.206;-6.106;2024-03-22T08:43:06;101858.13;;;20.93;46.80
58686;BME280;44465;53.206;-6.106;2024-03-22T08:45:34;101860.81;;;20.93;46.91
58686;BME280;44465;53.206;-6.106;2024-03-22T08:48:00;101854.63;;;20.91;47.01
58686;BME280;44465;53.206;-6.106;2024-03-22T08:50:26;101859.88;;;20.94;46.90
58686;BME280;44465;53.206;-6.106;2024-03-22T08:52:52;101851.94;;;20.91;46.77
58686;BME280;44465;53.206;-6.106;2024-03-22T08:55:18;101860.81;;;20.93;46.93
58686;BME280;44465;53.206;-6.106;2024-03-22T08:57:43;101847.56;;;20.90;46.91
58686;BME280;44465;53.206;-6.106;2024-03-22T09:00:09;101847.38;;;20.95;46.76
58686;BME280;44465;53.206;-6.106;2024-03-22T09:02:36;101844.06;;;20.88;47.02
58686;BME280;44465;53.206;-6.106;2024-03-22T09:05:02;101836.84;;;20.90;46.79
58686;BME280;44465;53.206;-6.106;2024-03-22T09:07:27;101852.94;;;20.88;46.45
58686;BME280;44465;53.206;-6.106;2024-03-22T09:09:53;101840.31;;;20.92;46.79
58686;BME280;44465;53.206;-6.106;2024-03-22T09:12:19;101845.66;;;20.92;46.72
58686;BME280;44465;53.206;-6.106;2024-03-22T09:14:44;101824.41;;;20.89;46.91
58686;BME280;44465;53.206;-6.106;2024-03-22T09:17:10;101835.09;;;20.89;46.60
58686;BME280;44465;53.206;-6.106;2024-03-22T09:19:36;101837.81;;;20.87;46.66
58686;BME280;44465;53.206;-6.106;2024-03-22T09:22:02;101840.38;;;20.90;46.63
58686;BME280;44465;53.206;-6.106;2024-03-22T09:24:28;101832.41;;;20.89;46.32
58686;BME280;44465;53.206;-6.106;2024-03-22T09:26:53;101839.47;;;20.91;46.57
58686;BME280;44465;53.206;-6.106;2024-03-22T09:29:19;101827.84;;;20.91;46.51
58686;BME280;44465;53.206;-6.106;2024-03-22T09:31:44;101841.31;;;20.89;46.39
58686;BME280;44465;53.206;-6.106;2024-03-22T09:34:12;101844.88;;;20.90;46.42
58686;BME280;44465;53.206;-6.106;2024-03-22T09:36:37;101858.19;;;20.91;46.15
58686;BME280;44465;53.206;-6.106;2024-03-22T09:39:04;101835.56;;;20.76;46.48
58686;BME280;44465;53.206;-6.106;2024-03-22T09:41:32;101868.09;;;20.89;46.63
58686;BME280;44465;53.206;-6.106;2024-03-22T09:43:58;101861.09;;;20.85;46.41
58686;BME280;44465;53.206;-6.106;2024-03-22T09:46:26;101853.88;;;20.87;46.16
58686;BME280;44465;53.206;-6.106;2024-03-22T09:48:53;101854.94;;;20.83;46.35
58686;BME280;44465;53.206;-6.106;2024-03-22T09:51:19;101849.41;;;20.88;46.26
58686;BME280;44465;53.206;-6.106;2024-03-22T09:53:48;101869.03;;;20.88;46.33
58686;BME280;44465;53.206;-6.106;2024-03-22T09:56:14;101865.34;;;20.91;46.41
58686;BME280;44465;53.206;-6.106;2024-03-22T09:58:41;101861.88;;;20.89;46.37
58686;BME280;44465;53.206;-6.106;2024-03-22T10:01:07;101860.22;;;20.85;45.73
58686;BME280;44465;53.206;-6.106;2024-03-22T10:03:33;101849.41;;;20.88;46.07
58686;BME280;44465;53.206;-6.106;2024-03-22T10:05:59;101839.84;;;20.81;46.06
58686;BME280;44465;53.206;-6.106;2024-03-22T10:08:26;101862.72;;;20.89;45.93
58686;BME280;44465;53.206;-6.106;2024-03-22T10:10:51;101856.53;;;20.89;46.15
58686;BME280;44465;53.206;-6.106;2024-03-22T10:13:17;101856.72;;;20.83;46.25
58686;BME280;44465;53.206;-6.106;2024-03-22T10:15:42;101849.63;;;20.82;46.17
58686;BME280;44465;53.206;-6.106;2024-03-22T10:18:09;101840.56;;;20.86;46.39
58686;BME280;44465;53.206;-6.106;2024-03-22T10:20:35;101839.75;;;20.84;45.94
58686;BME280;44465;53.206;-6.106;2024-03-22T10:23:01;101856.53;;;20.89;46.58
58686;BME280;44465;53.206;-6.106;2024-03-22T10:25:27;101832.41;;;20.89;46.02
58686;BME280;44465;53.206;-6.106;2024-03-22T10:27:56;101832.47;;;20.87;46.46
58686;BME280;44465;53.206;-6.106;2024-03-22T10:30:23;101835.09;;;20.89;46.33
58686;BME280;44465;53.206;-6.106;2024-03-22T10:32:49;101831.72;;;20.84;46.59
58686;BME280;44465;53.206;-6.106;2024-03-22T10:35:15;101829.84;;;20.86;46.35
58686;BME280;44465;53.206;-6.106;2024-03-22T10:37:42;101822.66;;;20.88;46.21
58686;BME280;44465;53.206;-6.106;2024-03-22T10:40:08;101795.22;;;20.81;46.37
58686;BME280;44465;53.206;-6.106;2024-03-22T10:42:39;101820.78;;;20.90;46.07
58686;BME280;44465;53.206;-6.106;2024-03-22T10:45:06;101818.97;;;20.90;46.34
58686;BME280;44465;53.206;-6.106;2024-03-22T10:47:34;101794.94;;;20.89;46.42
58686;BME280;44465;53.206;-6.106;2024-03-22T10:50:08;101790.50;;;20.88;46.45
58686;BME280;44465;53.206;-6.106;2024-03-22T10:52:39;101800.22;;;20.90;46.53
58686;BME280;44465;53.206;-6.106;2024-03-22T10:55:08;101794.00;;;20.90;46.71
58686;BME280;44465;53.206;-6.106;2024-03-22T10:57:36;101784.91;;;20.94;46.76
58686;BME280;44465;53.206;-6.106;2024-03-22T11:00:09;101777.69;;;20.96;46.76
58686;BME280;44465;53.206;-6.106;2024-03-22T11:02:38;101774.28;;;20.92;46.91
58686;BME280;44465;53.206;-6.106;2024-03-22T11:05:06;101789.44;;;20.68;45.16
58686;BME280;44465;53.206;-6.106;2024-03-22T11:07:32;101798.16;;;20.73;44.28
58686;BME280;44465;53.206;-6.106;2024-03-22T11:10:00;101775.56;;;20.82;45.58
58686;BME280;44465;53.206;-6.106;2024-03-22T11:12:28;101790.63;;;20.85;45.97
58686;BME280;44465;53.206;-6.106;2024-03-22T11:14:58;101773.56;;;20.87;46.26
58686;BME280;44465;53.206;-6.106;2024-03-22T11:17:23;101791.44;;;20.87;46.14
58686;BME280;44465;53.206;-6.106;2024-03-22T11:19:52;101785.28;;;20.85;46.38
58686;BME280;44465;53.206;-6.106;2024-03-22T11:22:20;101788.75;;;20.87;46.43
58686;BME280;44465;53.206;-6.106;2024-03-22T11:24:45;101788.59;;;20.91;46.53
58686;BME280;44465;53.206;-6.106;2024-03-22T11:27:11;101778.16;;;20.84;46.69
58686;BME280;44465;53.206;-6.106;2024-03-22T11:29:38;101777.06;;;20.89;46.32
58686;BME280;44465;53.206;-6.106;2024-03-22T11:32:06;101795.72;;;20.91;46.49
58686;BME280;44465;53.206;-6.106;2024-03-22T11:34:37;101797.63;;;20.89;46.55
58686;BME280;44465;53.206;-6.106;2024-03-22T11:37:05;101809.91;;;20.95;46.79
58686;BME280;44465;53.206;-6.106;2024-03-22T11:39:33;101796.50;;;20.95;46.77
58686;BME280;44465;53.206;-6.106;2024-03-22T11:42:01;101795.72;;;20.91;46.45
58686;BME280;44465;53.206;-6.106;2024-03-22T11:44:28;101808.94;;;20.96;46.79
58686;BME280;44465;53.206;-6.106;2024-03-22T11:46:54;101815.44;;;20.90;46.53
58686;BME280;44465;53.206;-6.106;2024-03-22T11:49:19;101809.00;;;20.94;46.84
58686;BME280;44465;53.206;-6.106;2024-03-22T11:51:45;101802.72;;;20.95;46.81
58686;BME280;44465;53.206;-6.106;2024-03-22T11:54:11;101801.84;;;20.95;46.89
58686;BME280;44465;53.206;-6.106;2024-03-22T11:56:36;101802.81;;;20.92;46.86
58686;BME280;44465;53.206;-6.106;2024-03-22T11:59:02;101807.06;;;20.98;46.99
58686;BME280;44465;53.206;-6.106;2024-03-22T12:01:29;101796.38;;;20.98;46.77
58686;BME280;44465;53.206;-6.106;2024-03-22T12:03:55;101800.75;;;21.00;46.51
58686;BME280;44465;53.206;-6.106;2024-03-22T12:06:21;101788.34;;;20.98;46.47
58686;BME280;44465;53.206;-6.106;2024-03-22T12:08:47;101779.38;;;20.99;46.59
58686;BME280;44465;53.206;-6.106;2024-03-22T12:11:13;101785.63;;;20.99;46.52
58686;BME280;44465;53.206;-6.106;2024-03-22T12:13:39;101786.47;;;21.00;46.71
58686;BME280;44465;53.206;-6.106;2024-03-22T12:16:05;101786.47;;;21.00;46.67
58686;BME280;44465;53.206;-6.106;2024-03-22T12:18:32;101795.41;;;21.00;46.70
58686;BME280;44465;53.206;-6.106;2024-03-22T12:20:58;101790.16;;;20.97;46.64
58686;BME280;44465;53.206;-6.106;2024-03-22T12:23:24;101785.53;;;21.01;46.65
58686;BME280;44465;53.206;-6.106;2024-03-22T12:25:51;101788.16;;;21.02;46.71
58686;BME280;44465;53.206;-6.106;2024-03-22T12:28:17;101784.53;;;21.03;46.60
58686;BME280;44465;53.206;-6.106;2024-03-22T12:30:42;101780.09;;;21.02;46.80
58686;BME280;44465;53.206;-6.106;2024-03-22T12:33:08;101785.53;;;21.01;46.72
58686;BME280;44465;53.206;-6.106;2024-03-22T12:35:36;101763.47;;;20.94;46.45
58686;BME280;44465;53.206;-6.106;2024-03-22T12:38:02;101776.69;;;20.99;46.49